createdAt,value
2023-01-26T00:01:19.916Z,1.10
2023-01-26T00:03:47.289Z,1.09
2023-01-26T00:06:16.821Z,1.12
2023-01-26T00:08:46.436Z,1.11
2023-01-26T00:11:16.369Z,1.01
2023-01-26T00:13:44.221Z,0.96
2023-01-26T00:16:13.857Z,1.25
2023-01-26T00:18:42.031Z,1.12
2023-01-26T00:21:13.897Z,1.08
2023-01-26T00:23:41.464Z,1.05
2023-01-26T00:26:10.573Z,1.07
2023-01-26T00:28:39.972Z,1.04
2023-01-26T00:31:18.830Z,1.05
2023-01-26T00:33:46.339Z,1.11
2023-01-26T00:36:14.998Z,1.11
2023-01-26T00:38:42.927Z,1.13
2023-01-26T00:41:30.733Z,1.13
2023-01-26T00:43:57.969Z,1.00
2023-01-26T00:46:25.285Z,0.95
2023-01-26T00:48:52.561Z,1.00
2023-01-26T00:51:19.828Z,1.12
2023-01-26T00:53:47.383Z,1.12
2023-01-26T00:56:14.848Z,1.13
2023-01-26T00:58:43.122Z,1.03
2023-01-26T01:01:12.107Z,1.11
2023-01-26T01:03:42.957Z,0.96
2023-01-26T01:06:10.285Z,0.98
2023-01-26T01:08:37.575Z,0.99
2023-01-26T01:11:07.464Z,0.91
2023-01-26T01:13:35.284Z,0.84
2023-01-26T01:16:11.704Z,0.90
2023-01-26T01:18:39.397Z,1.04
2023-01-26T01:21:08.683Z,0.98
2023-01-26T01:23:36.142Z,0.94
2023-01-26T01:26:04.234Z,1.01
2023-01-26T01:28:32.983Z,1.28
2023-01-26T01:31:03.451Z,1.04
2023-01-26T01:33:30.765Z,0.94
2023-01-26T01:35:59.440Z,1.01
2023-01-26T01:38:27.494Z,1.34
2023-01-26T01:40:56.021Z,1.17
2023-01-26T01:43:24.424Z,1.00
2023-01-26T01:45:52.491Z,0.94
2023-01-26T01:48:30.162Z,1.00
2023-01-26T01:51:05.718Z,0.96
2023-01-26T01:53:37.703Z,0.92
2023-01-26T01:56:10.713Z,0.95
2023-01-26T01:58:41.592Z,1.21
2023-01-26T02:01:10.715Z,1.44
2023-01-26T02:03:39.188Z,1.35
2023-01-26T02:06:14.425Z,1.16
2023-01-26T02:08:56.166Z,1.23
2023-01-26T02:11:31.556Z,1.27
2023-01-26T02:14:05.393Z,1.14
2023-01-26T02:16:32.897Z,1.38
2023-01-26T02:19:00.410Z,1.20
2023-01-26T02:21:27.918Z,1.08
2023-01-26T02:24:21.642Z,0.85
2023-01-26T02:26:50.143Z,0.91
2023-01-26T02:29:17.824Z,0.85
2023-01-26T02:31:45.959Z,0.74
2023-01-26T02:34:13.469Z,0.65
2023-01-26T02:36:41.236Z,0.64
2023-01-26T02:39:35.542Z,0.63
2023-01-26T02:42:21.644Z,0.55
2023-01-26T02:44:49.512Z,0.44
2023-01-26T02:47:19.667Z,0.44
2023-01-26T02:49:48.192Z,0.50
2023-01-26T02:52:19.353Z,0.76
2023-01-26T02:55:25.655Z,0.80
2023-01-26T02:57:59.119Z,0.68
2023-01-26T03:00:32.127Z,0.82
2023-01-26T03:03:01.624Z,0.71
2023-01-26T03:05:30.639Z,0.98
2023-01-26T03:07:57.874Z,0.96
2023-01-26T03:10:30.990Z,0.99
2023-01-26T03:12:58.844Z,0.86
2023-01-26T03:15:43.259Z,0.70
2023-01-26T03:18:33.287Z,0.51
2023-01-26T03:21:21.500Z,0.50
2023-01-26T03:24:07.325Z,0.45
2023-01-26T03:26:54.158Z,0.44
2023-01-26T03:29:22.244Z,0.33
2023-01-26T03:31:50.013Z,0.43
2023-01-26T03:34:18.362Z,0.34
2023-01-26T03:36:47.786Z,0.25
2023-01-26T03:39:36.168Z,0.29
2023-01-26T03:42:23.618Z,0.30
2023-01-26T03:45:09.494Z,0.26
2023-01-26T03:47:57.135Z,0.25
2023-01-26T03:50:43.528Z,0.24
2023-01-26T03:53:41.131Z,0.28
2023-01-26T03:56:22.277Z,0.46
2023-01-26T03:58:58.089Z,0.53
2023-01-26T04:01:28.741Z,0.62
2023-01-26T04:04:17.391Z,0.30
2023-01-26T04:07:07.008Z,0.30
2023-01-26T04:09:37.180Z,0.52
2023-01-26T04:12:04.837Z,0.59
2023-01-26T04:14:53.513Z,0.41
2023-01-26T04:17:43.285Z,0.29
2023-01-26T04:20:29.608Z,0.23
2023-01-26T04:22:57.029Z,0.31
2023-01-26T04:25:24.369Z,0.63
2023-01-26T04:27:51.864Z,0.60
2023-01-26T04:30:19.535Z,0.55
2023-01-26T04:32:46.988Z,0.71
2023-01-26T04:35:14.779Z,0.59
2023-01-26T04:37:43.582Z,0.40
2023-01-26T04:40:11.835Z,0.35
2023-01-26T04:42:39.526Z,0.35
2023-01-26T04:45:08.813Z,0.38
2023-01-26T04:47:36.261Z,0.61
2023-01-26T04:50:04.855Z,0.52
2023-01-26T04:52:32.579Z,0.35
2023-01-26T04:55:00.333Z,0.35
2023-01-26T04:57:28.436Z,0.28
2023-01-26T04:59:55.843Z,0.26
2023-01-26T05:02:23.280Z,0.25
2023-01-26T05:04:50.753Z,0.28
2023-01-26T05:07:18.009Z,0.27
2023-01-26T05:09:46.902Z,0.29
2023-01-26T05:12:33.917Z,0.30
2023-01-26T05:15:20.036Z,0.18
2023-01-26T05:18:06.733Z,0.22
2023-01-26T05:20:48.966Z,0.23
2023-01-26T05:23:25.845Z,0.27
2023-01-26T05:25:55.699Z,0.21
2023-01-26T05:28:23.068Z,0.34
2023-01-26T05:30:51.385Z,0.27
2023-01-26T05:33:22.234Z,0.20
2023-01-26T05:35:51.785Z,0.17
2023-01-26T05:38:21.043Z,0.17
2023-01-26T05:40:48.790Z,0.19
2023-01-26T05:43:16.990Z,0.23
2023-01-26T05:46:10.585Z,0.12
2023-01-26T05:48:41.852Z,0.14
2023-01-26T05:51:09.175Z,0.24
2023-01-26T05:53:37.360Z,0.32
2023-01-26T05:56:04.970Z,0.45
2023-01-26T05:58:34.201Z,0.52
2023-01-26T06:01:05.142Z,0.26
2023-01-26T06:03:40.536Z,0.21
2023-01-26T06:06:07.899Z,0.19
2023-01-26T06:08:47.904Z,0.21
2023-01-26T06:11:44.378Z,0.26
2023-01-26T06:14:37.812Z,0.19
2023-01-26T06:17:05.091Z,0.08
2023-01-26T06:19:32.441Z,-0.03
2023-01-26T06:22:02.450Z,0.03
2023-01-26T06:24:30.735Z,0.04
2023-01-26T06:26:58.032Z,-0.06
2023-01-26T06:29:25.365Z,-0.06
2023-01-26T06:31:53.260Z,0.16
2023-01-26T06:34:22.009Z,0.54
2023-01-26T06:36:49.851Z,0.55
2023-01-26T06:39:24.449Z,0.32
2023-01-26T06:41:51.701Z,0.26
2023-01-26T06:44:18.952Z,0.26
2023-01-26T06:46:46.219Z,0.17
2023-01-26T06:49:16.695Z,0.11
2023-01-26T06:52:05.124Z,0.07
2023-01-26T06:54:53.434Z,0.02
2023-01-26T06:57:39.228Z,-0.01
2023-01-26T07:00:39.758Z,-0.08
2023-01-26T07:03:26.189Z,-0.06
2023-01-26T07:05:53.445Z,-0.05
2023-01-26T07:08:20.745Z,0.07
2023-01-26T07:10:49.796Z,0.11
2023-01-26T07:13:17.126Z,0.11
2023-01-26T07:15:44.502Z,0.22
2023-01-26T07:18:11.837Z,0.26
2023-01-26T07:20:39.104Z,0.33
2023-01-26T07:23:06.333Z,0.37
2023-01-26T07:25:33.651Z,0.52
2023-01-26T07:28:00.841Z,0.53
2023-01-26T07:30:28.224Z,0.46
2023-01-26T07:32:55.495Z,0.37
2023-01-26T07:35:22.705Z,0.53
2023-01-26T07:37:49.964Z,0.58
2023-01-26T07:40:17.655Z,0.56
2023-01-26T07:42:44.894Z,0.76
2023-01-26T07:45:19.228Z,0.97
2023-01-26T07:47:46.954Z,1.18
2023-01-26T07:50:14.451Z,1.44
2023-01-26T07:52:43.669Z,1.40
2023-01-26T07:55:11.506Z,1.42
2023-01-26T07:57:38.782Z,0.98
2023-01-26T08:00:06.927Z,0.97
2023-01-26T08:02:39.007Z,1.07
2023-01-26T08:05:06.572Z,1.04
2023-01-26T08:07:34.003Z,1.29
2023-01-26T08:10:01.299Z,1.57
2023-01-26T08:12:28.549Z,1.59
2023-01-26T08:14:55.760Z,1.55
2023-01-26T08:17:23.015Z,1.86
2023-01-26T08:19:50.237Z,1.97
2023-01-26T08:22:17.427Z,2.04
2023-01-26T08:24:44.777Z,1.78
2023-01-26T08:27:12.075Z,1.90
2023-01-26T08:29:39.315Z,1.99
2023-01-26T08:32:08.217Z,2.09
2023-01-26T08:34:36.305Z,2.00
2023-01-26T08:37:03.627Z,1.74
2023-01-26T08:39:30.915Z,2.18
2023-01-26T08:41:58.421Z,2.19
2023-01-26T08:44:25.643Z,2.07
2023-01-26T08:46:52.868Z,1.68
2023-01-26T08:49:20.097Z,2.04
2023-01-26T08:51:47.389Z,2.19
2023-01-26T08:54:14.594Z,2.45
2023-01-26T08:56:41.814Z,2.58
2023-01-26T08:59:09.071Z,2.07
2023-01-26T09:01:36.374Z,2.53
2023-01-26T09:04:03.872Z,2.53
2023-01-26T09:06:33.044Z,2.67
2023-01-26T09:09:00.280Z,2.35
2023-01-26T09:11:27.626Z,2.64
2023-01-26T09:13:56.714Z,2.74
2023-01-26T09:16:24.991Z,2.52
2023-01-26T09:18:53.878Z,2.22
2023-01-26T09:21:21.306Z,2.40
2023-01-26T09:23:48.633Z,2.35
2023-01-26T09:26:15.932Z,2.74
2023-01-26T09:28:43.169Z,2.86
2023-01-26T09:31:12.323Z,2.82
2023-01-26T09:33:39.605Z,2.94
2023-01-26T09:36:09.909Z,3.06
2023-01-26T09:38:37.460Z,3.42
2023-01-26T09:41:08.151Z,3.23
2023-01-26T09:43:39.877Z,3.33
2023-01-26T09:46:16.272Z,2.98
2023-01-26T09:48:57.662Z,3.66
2023-01-26T09:51:33.837Z,3.56
2023-01-26T09:54:04.028Z,3.81
2023-01-26T09:56:32.998Z,3.96
2023-01-26T09:59:16.789Z,3.74
2023-01-26T10:01:54.819Z,3.80
2023-01-26T10:04:25.244Z,3.65
2023-01-26T10:06:55.694Z,3.66
2023-01-26T10:09:47.786Z,4.17
2023-01-26T10:12:15.087Z,4.07
2023-01-26T10:14:52.941Z,3.85
2023-01-26T10:17:29.048Z,3.86
2023-01-26T10:20:04.151Z,3.45
2023-01-26T10:22:34.464Z,3.38
2023-01-26T10:25:01.831Z,3.36
2023-01-26T10:27:29.572Z,3.59
2023-01-26T10:29:56.824Z,3.97
2023-01-26T10:32:24.267Z,4.11
2023-01-26T10:34:51.820Z,3.95
2023-01-26T10:37:25.463Z,3.65
2023-01-26T10:40:04.565Z,4.04
2023-01-26T10:42:34.469Z,4.10
2023-01-26T10:45:03.360Z,4.17
2023-01-26T10:47:30.795Z,4.12
2023-01-26T10:50:22.934Z,4.29
2023-01-26T10:53:04.068Z,4.33
2023-01-26T10:55:33.768Z,4.12
2023-01-26T10:58:01.593Z,4.30
2023-01-26T11:00:31.660Z,4.05
2023-01-26T11:03:12.570Z,3.54
2023-01-26T11:05:41.091Z,4.29
2023-01-26T11:08:35.036Z,4.30
2023-01-26T11:11:03.872Z,4.43
2023-01-26T11:13:31.096Z,4.49
2023-01-26T11:16:23.879Z,4.25
2023-01-26T11:19:07.645Z,4.02
2023-01-26T11:21:55.484Z,4.39
2023-01-26T11:24:43.461Z,4.27
2023-01-26T11:27:39.767Z,4.51
2023-01-26T11:30:07.046Z,4.39
2023-01-26T11:32:55.947Z,4.52
2023-01-26T11:35:56.259Z,4.08
2023-01-26T11:38:32.606Z,4.95
2023-01-26T11:41:37.414Z,4.32
2023-01-26T11:44:46.257Z,4.46
2023-01-26T11:47:22.690Z,4.37
2023-01-26T11:50:11.534Z,3.85
2023-01-26T11:52:55.635Z,4.02
2023-01-26T11:55:45.781Z,3.72
2023-01-26T11:58:54.851Z,4.23
2023-01-26T12:01:34.098Z,4.40
2023-01-26T12:04:01.399Z,4.81
2023-01-26T12:06:36.570Z,4.71
2023-01-26T12:09:18.806Z,3.78
2023-01-26T12:11:58.263Z,3.54
2023-01-26T12:14:31.640Z,3.44
2023-01-26T12:17:15.603Z,3.63
2023-01-26T12:19:56.813Z,4.12
2023-01-26T12:22:47.991Z,4.14
2023-01-26T12:25:24.222Z,4.28
2023-01-26T12:28:02.415Z,4.20
2023-01-26T12:30:38.045Z,3.97
2023-01-26T12:33:05.544Z,3.87
2023-01-26T12:35:53.498Z,3.86
2023-01-26T12:38:39.331Z,3.74
2023-01-26T12:41:38.394Z,4.11
2023-01-26T12:44:17.885Z,4.44
2023-01-26T12:46:56.563Z,4.32
2023-01-26T12:49:31.197Z,4.43
2023-01-26T12:52:19.560Z,4.48
2023-01-26T12:55:02.134Z,3.56
2023-01-26T12:57:45.206Z,4.17
2023-01-26T13:00:24.485Z,4.33
2023-01-26T13:02:58.760Z,4.27
2023-01-26T13:05:35.629Z,4.48
2023-01-26T13:08:30.922Z,4.30
2023-01-26T13:11:00.284Z,4.20
2023-01-26T13:13:52.660Z,3.85
2023-01-26T13:16:23.651Z,3.63
2023-01-26T13:18:55.919Z,4.02
2023-01-26T13:21:38.526Z,4.19
2023-01-26T13:24:26.097Z,4.07
2023-01-26T13:26:56.907Z,3.67
2023-01-26T13:29:34.908Z,3.27
2023-01-26T13:32:22.036Z,3.59
2023-01-26T13:34:58.968Z,3.43
2023-01-26T13:37:39.497Z,3.52
2023-01-26T13:40:19.425Z,3.75
2023-01-26T13:42:49.769Z,3.93
2023-01-26T13:45:22.798Z,3.83
2023-01-26T13:47:53.331Z,3.98
2023-01-26T13:50:24.053Z,4.01
2023-01-26T13:52:51.522Z,3.57
2023-01-26T13:55:27.697Z,3.71
2023-01-26T13:58:30.548Z,3.38
2023-01-26T14:00:59.057Z,3.69
2023-01-26T14:03:26.843Z,3.55
2023-01-26T14:06:22.685Z,3.50
2023-01-26T14:08:54.510Z,3.05
2023-01-26T14:11:27.921Z,3.10
2023-01-26T14:13:58.756Z,3.12
2023-01-26T14:16:36.107Z,3.11
2023-01-26T14:19:18.646Z,3.27
2023-01-26T14:21:50.820Z,2.97
2023-01-26T14:24:21.159Z,2.89
2023-01-26T14:26:49.077Z,2.93
2023-01-26T14:29:25.949Z,3.13
2023-01-26T14:31:56.297Z,2.97
2023-01-26T14:34:27.176Z,2.85
2023-01-26T14:37:15.125Z,2.77
2023-01-26T14:39:45.026Z,2.91
2023-01-26T14:42:15.308Z,3.08
2023-01-26T14:44:42.888Z,3.05
2023-01-26T14:47:17.172Z,2.88
2023-01-26T14:49:56.822Z,3.14
2023-01-26T14:52:28.807Z,3.18
2023-01-26T14:55:06.400Z,2.91
2023-01-26T14:57:33.776Z,3.09
2023-01-26T15:00:02.592Z,2.59
2023-01-26T15:02:39.145Z,2.51
2023-01-26T15:05:17.093Z,2.61
2023-01-26T15:08:02.382Z,2.52
2023-01-26T15:10:35.857Z,2.70
2023-01-26T15:13:06.008Z,2.54
2023-01-26T15:15:37.308Z,2.70
2023-01-26T15:18:13.482Z,2.35
2023-01-26T15:20:43.995Z,2.31
2023-01-26T15:23:20.429Z,2.27
2023-01-26T15:25:48.540Z,2.23
2023-01-26T15:28:19.527Z,2.04
2023-01-26T15:30:50.661Z,2.08
2023-01-26T15:33:43.859Z,2.22
2023-01-26T15:36:26.341Z,1.95
2023-01-26T15:38:59.924Z,2.01
2023-01-26T15:41:28.640Z,1.89
2023-01-26T15:43:56.887Z,2.00
2023-01-26T15:46:24.203Z,1.99
2023-01-26T15:48:51.521Z,1.93
2023-01-26T15:51:18.767Z,1.89
2023-01-26T15:53:46.089Z,1.88
2023-01-26T15:56:32.269Z,1.92
2023-01-26T15:58:59.477Z,2.01
2023-01-26T16:01:27.122Z,1.86
2023-01-26T16:03:54.531Z,1.74
2023-01-26T16:06:27.776Z,1.78
2023-01-26T16:08:55.882Z,1.74
2023-01-26T16:11:28.095Z,1.70
2023-01-26T16:14:03.391Z,1.57
2023-01-26T16:16:32.872Z,1.60
2023-01-26T16:19:00.367Z,1.51
2023-01-26T16:21:31.566Z,1.53
2023-01-26T16:23:59.802Z,1.61
2023-01-26T16:26:28.223Z,1.56
2023-01-26T16:28:56.067Z,1.55
2023-01-26T16:31:30.188Z,1.64
2023-01-26T16:33:58.065Z,1.76
2023-01-26T16:36:25.369Z,1.70
2023-01-26T16:38:52.639Z,1.57
2023-01-26T16:41:32.101Z,1.53
2023-01-26T16:44:01.337Z,1.58
2023-01-26T16:46:30.259Z,1.54
2023-01-26T16:48:57.545Z,1.53
2023-01-26T16:51:26.504Z,1.49
2023-01-26T16:53:54.488Z,1.49
2023-01-26T16:56:22.699Z,1.62
2023-01-26T16:58:50.389Z,1.77
2023-01-26T17:01:28.547Z,1.77
2023-01-26T17:03:56.583Z,1.62
2023-01-26T17:06:24.405Z,1.78
2023-01-26T17:08:52.845Z,1.75
2023-01-26T17:11:23.190Z,1.57
2023-01-26T17:13:51.047Z,1.64
2023-01-26T17:16:25.078Z,1.75
2023-01-26T17:18:52.746Z,1.65
2023-01-26T17:21:20.807Z,1.69
2023-01-26T17:23:53.162Z,1.75
2023-01-26T17:26:21.141Z,1.57
2023-01-26T17:28:50.324Z,1.56
2023-01-26T17:31:20.168Z,1.50
2023-01-26T17:33:50.222Z,1.43
2023-01-26T17:36:17.871Z,1.52
2023-01-26T17:38:45.381Z,1.56
2023-01-26T17:41:12.741Z,1.57
2023-01-26T17:43:40.152Z,1.55
2023-01-26T17:46:12.891Z,1.54
2023-01-26T17:48:43.527Z,1.53
2023-01-26T17:51:17.078Z,1.52
2023-01-26T17:53:46.155Z,1.49
2023-01-26T17:56:16.214Z,1.52
2023-01-26T17:58:46.727Z,1.46
2023-01-26T18:01:14.053Z,1.52
2023-01-26T18:03:42.816Z,1.46
2023-01-26T18:06:10.507Z,1.45
2023-01-26T18:08:38.798Z,1.29
2023-01-26T18:11:09.631Z,1.52
2023-01-26T18:13:37.520Z,1.31
2023-01-26T18:16:06.783Z,1.58
2023-01-26T18:18:35.133Z,1.41
2023-01-26T18:21:19.090Z,1.47
2023-01-26T18:24:01.752Z,1.48
2023-01-26T18:26:32.225Z,1.40
2023-01-26T18:28:59.641Z,1.26
2023-01-26T18:31:32.831Z,1.27
2023-01-26T18:34:02.593Z,1.37
2023-01-26T18:36:30.207Z,1.42
2023-01-26T18:39:00.632Z,1.31
2023-01-26T18:41:30.697Z,1.58
2023-01-26T18:43:58.509Z,1.39
2023-01-26T18:46:28.094Z,1.37
2023-01-26T18:49:00.638Z,1.45
2023-01-26T18:51:31.063Z,1.49
2023-01-26T18:53:58.482Z,1.50
2023-01-26T18:56:25.873Z,1.60
2023-01-26T18:58:53.887Z,1.62
2023-01-26T19:01:22.182Z,1.49
2023-01-26T19:03:54.209Z,1.35
2023-01-26T19:06:23.480Z,1.55
2023-01-26T19:08:58.681Z,1.45
2023-01-26T19:11:33.691Z,1.60
2023-01-26T19:14:01.771Z,1.58
2023-01-26T19:16:29.636Z,1.72
2023-01-26T19:18:57.592Z,1.80
2023-01-26T19:21:27.483Z,1.78
2023-01-26T19:23:55.868Z,1.46
2023-01-26T19:26:25.779Z,1.52
2023-01-26T19:28:54.194Z,1.34
2023-01-26T19:31:22.557Z,1.19
2023-01-26T19:33:51.714Z,1.40
2023-01-26T19:36:19.835Z,1.25
2023-01-26T19:38:47.304Z,1.64
2023-01-26T19:41:14.809Z,1.55
2023-01-26T19:43:42.687Z,1.23
2023-01-26T19:46:12.069Z,1.37
2023-01-26T19:48:39.789Z,1.05
2023-01-26T19:51:10.841Z,1.02
2023-01-26T19:53:41.341Z,0.85
2023-01-26T19:56:11.188Z,0.77
2023-01-26T19:58:39.346Z,0.59
2023-01-26T20:01:09.131Z,0.61
2023-01-26T20:03:36.865Z,0.53
2023-01-26T20:06:05.740Z,0.49
2023-01-26T20:08:33.035Z,0.44
2023-01-26T20:11:08.473Z,0.40
2023-01-26T20:13:36.466Z,0.31
2023-01-26T20:16:06.942Z,0.36
2023-01-26T20:18:35.781Z,0.36
2023-01-26T20:21:03.524Z,0.48
2023-01-26T20:23:30.750Z,0.37
2023-01-26T20:26:03.507Z,0.31
2023-01-26T20:28:30.957Z,0.30
2023-01-26T20:31:10.687Z,0.26
2023-01-26T20:33:38.950Z,0.24
2023-01-26T20:36:12.697Z,0.45
2023-01-26T20:38:40.003Z,0.29
2023-01-26T20:41:23.773Z,0.26
2023-01-26T20:43:59.620Z,0.36
2023-01-26T20:46:33.607Z,0.26
2023-01-26T20:49:01.522Z,0.23
2023-01-26T20:51:33.506Z,0.27
2023-01-26T20:54:00.968Z,0.13
2023-01-26T20:56:28.612Z,0.09
2023-01-26T20:58:56.242Z,0.01
2023-01-26T21:01:24.921Z,0.02
2023-01-26T21:03:53.861Z,0.06
2023-01-26T21:06:22.564Z,0.20
2023-01-26T21:08:53.177Z,0.08
2023-01-26T21:11:22.668Z,0.10
2023-01-26T21:13:51.903Z,0.08
2023-01-26T21:16:19.336Z,0.04
2023-01-26T21:18:46.803Z,0.00
2023-01-26T21:21:17.760Z,0.08
2023-01-26T21:23:46.060Z,0.00
2023-01-26T21:26:16.129Z,0.08
2023-01-26T21:28:43.824Z,0.09
2023-01-26T21:31:16.367Z,0.04
2023-01-26T21:33:45.824Z,-0.03
2023-01-26T21:36:19.451Z,-0.05
2023-01-26T21:38:48.385Z,0.00
2023-01-26T21:41:37.593Z,-0.03
2023-01-26T21:44:16.944Z,-0.08
2023-01-26T21:46:45.837Z,-0.14
2023-01-26T21:49:13.905Z,-0.08
2023-01-26T21:52:00.234Z,-0.11
2023-01-26T21:54:29.915Z,-0.12
2023-01-26T21:56:58.410Z,-0.08
2023-01-26T21:59:26.063Z,-0.11
2023-01-26T22:01:55.495Z,-0.09
2023-01-26T22:04:29.537Z,-0.08
2023-01-26T22:06:57.337Z,-0.11
2023-01-26T22:09:25.108Z,-0.15
2023-01-26T22:11:52.756Z,-0.17
2023-01-26T22:14:22.645Z,-0.20
2023-01-26T22:16:49.801Z,-0.16
2023-01-26T22:19:17.409Z,-0.03
2023-01-26T22:21:44.826Z,0.22
2023-01-26T22:24:15.415Z,0.36
2023-01-26T22:26:42.654Z,0.27
2023-01-26T22:29:12.718Z,0.38
2023-01-26T22:31:40.132Z,0.46
2023-01-26T22:34:07.371Z,0.59
2023-01-26T22:36:34.751Z,0.59
2023-01-26T22:39:01.994Z,0.65
2023-01-26T22:41:30.683Z,0.52
2023-01-26T22:44:00.075Z,0.54
2023-01-26T22:46:29.263Z,0.55
2023-01-26T22:48:58.201Z,0.59
2023-01-26T22:51:28.431Z,0.53
2023-01-26T22:53:57.799Z,0.60
2023-01-26T22:56:26.115Z,0.60
2023-01-26T22:58:59.859Z,0.64
2023-01-26T23:01:33.355Z,0.69
2023-01-26T23:04:01.522Z,0.81
2023-01-26T23:06:29.178Z,0.87
2023-01-26T23:08:58.342Z,0.86
2023-01-26T23:11:28.080Z,0.92
2023-01-26T23:13:57.153Z,0.64
2023-01-26T23:16:25.503Z,0.43
2023-01-26T23:18:54.754Z,0.81
2023-01-26T23:21:22.311Z,0.86
2023-01-26T23:23:49.753Z,0.88
2023-01-26T23:26:17.197Z,0.79
2023-01-26T23:28:44.761Z,0.55
2023-01-26T23:31:14.496Z,0.54
2023-01-26T23:33:41.964Z,0.61
2023-01-26T23:36:11.590Z,0.70
2023-01-26T23:38:38.950Z,0.64
2023-01-26T23:41:08.502Z,0.73
2023-01-26T23:43:35.940Z,0.62
2023-01-26T23:46:04.984Z,0.62
2023-01-26T23:48:32.583Z,0.69
2023-01-26T23:51:02.548Z,0.68
2023-01-26T23:53:30.754Z,0.66
2023-01-26T23:56:00.562Z,0.62
2023-01-26T23:58:27.660Z,0.63
